createdAt,value
2022-09-28T07:50:02.826Z,12.68
2022-09-28T07:51:02.808Z,12.73
2022-09-28T07:52:03.226Z,12.81
2022-09-28T07:53:02.811Z,12.86
2022-09-28T07:54:02.781Z,12.94
2022-09-28T07:55:06.842Z,12.99
2022-09-28T07:56:02.739Z,12.95
2022-09-28T07:57:02.767Z,12.94
2022-09-28T07:58:02.718Z,12.87
2022-09-28T07:59:02.710Z,12.84
2022-09-28T08:00:02.928Z,12.80
2022-09-28T08:01:02.774Z,12.73
2022-09-28T08:02:02.688Z,12.69
2022-09-28T08:03:03.059Z,12.69
2022-09-28T08:04:02.710Z,12.66
2022-09-28T08:05:02.706Z,12.70
2022-09-28T08:06:02.690Z,12.75
2022-09-28T08:07:02.680Z,12.84
2022-09-28T08:08:02.637Z,12.90
2022-09-28T08:09:02.598Z,12.93
2022-09-28T08:10:02.623Z,12.99
2022-09-28T08:11:02.590Z,13.03
2022-09-28T08:12:02.569Z,13.12
2022-09-28T08:13:03.062Z,13.23
2022-09-28T08:14:02.559Z,13.26
2022-09-28T08:15:02.603Z,13.28
2022-09-28T08:16:02.565Z,13.26
2022-09-28T08:17:02.612Z,13.23
2022-09-28T08:18:03.133Z,13.23
2022-09-28T08:19:03.096Z,13.28
2022-09-28T08:20:02.487Z,13.40
2022-09-28T08:21:02.585Z,13.57
2022-09-28T08:22:02.530Z,13.78
2022-09-28T08:23:02.482Z,13.86
2022-09-28T08:24:02.560Z,13.87
2022-09-28T08:25:02.453Z,13.94
2022-09-28T08:26:02.472Z,13.95
2022-09-28T08:27:02.418Z,14.04
2022-09-28T08:28:02.418Z,14.16
2022-09-28T08:29:02.414Z,14.33
2022-09-28T08:30:02.418Z,14.49
2022-09-28T08:31:02.408Z,14.55
2022-09-28T08:32:02.554Z,14.55
2022-09-28T08:33:02.408Z,14.56
2022-09-28T08:34:02.320Z,14.61
2022-09-28T08:35:02.317Z,14.67
2022-09-28T08:36:02.331Z,14.73
2022-09-28T08:37:02.318Z,14.79
2022-09-28T08:38:02.341Z,14.82
2022-09-28T08:39:02.293Z,14.87
2022-09-28T08:40:02.278Z,14.92
2022-09-28T08:41:02.371Z,14.89
2022-09-28T08:42:02.288Z,14.87
2022-09-28T08:43:02.248Z,14.85
2022-09-28T08:44:02.282Z,14.85
2022-09-28T08:45:02.248Z,14.85
2022-09-28T08:46:02.287Z,14.87
2022-09-28T08:47:02.227Z,14.92
2022-09-28T08:48:02.228Z,14.99
2022-09-28T08:49:23.915Z,15.07
2022-09-28T08:50:03.206Z,15.08
2022-09-28T08:51:02.208Z,15.05
2022-09-28T08:52:02.258Z,15.05
2022-09-28T08:53:02.151Z,15.17
2022-09-28T08:54:02.148Z,15.30
2022-09-28T08:55:02.219Z,15.43
2022-09-28T08:56:02.117Z,15.47
2022-09-28T08:57:02.093Z,15.52
2022-09-28T08:58:02.107Z,15.60
2022-09-28T08:59:02.092Z,15.63
2022-09-28T09:00:02.081Z,15.57
2022-09-28T09:01:02.115Z,15.47
2022-09-28T09:02:02.261Z,15.36
2022-09-28T09:03:02.097Z,15.27
2022-09-28T09:04:02.019Z,15.32
2022-09-28T09:05:02.251Z,15.43
2022-09-28T09:06:02.017Z,15.63
2022-09-28T09:07:02.007Z,15.88
2022-09-28T09:08:01.997Z,15.91
2022-09-28T09:09:01.989Z,15.84
2022-09-28T09:10:02.029Z,15.75
2022-09-28T09:11:02.004Z,15.73
2022-09-28T09:12:01.956Z,15.73
2022-09-28T09:13:01.958Z,15.94
2022-09-28T09:14:02.103Z,16.39
2022-09-28T09:15:01.917Z,16.82
2022-09-28T09:16:01.907Z,17.02
2022-09-28T09:17:01.988Z,16.97
2022-09-28T09:18:01.889Z,16.79
2022-09-28T09:19:01.927Z,16.54
2022-09-28T09:20:01.981Z,16.28
2022-09-28T09:21:01.867Z,15.99
2022-09-28T09:22:01.971Z,15.72
2022-09-28T09:23:01.834Z,15.52
2022-09-28T09:24:01.797Z,15.36
2022-09-28T09:25:01.825Z,15.22
2022-09-28T09:26:01.818Z,15.15
2022-09-28T09:27:01.808Z,15.10
2022-09-28T09:28:01.888Z,15.10
2022-09-28T09:29:01.796Z,15.15
2022-09-28T09:30:01.803Z,15.30
2022-09-28T09:31:01.841Z,15.48
2022-09-28T09:32:01.737Z,15.66
2022-09-28T09:33:01.739Z,15.78
2022-09-28T09:34:01.718Z,15.96
2022-09-28T09:35:01.687Z,16.22
2022-09-28T09:36:01.696Z,16.31
2022-09-28T09:37:01.679Z,16.36
2022-09-28T09:38:01.825Z,16.40
2022-09-28T09:39:01.680Z,16.36
2022-09-28T09:40:01.666Z,16.26
2022-09-28T09:41:01.813Z,16.25
2022-09-28T09:42:01.637Z,16.25
2022-09-28T09:43:01.634Z,16.22
2022-09-28T09:44:01.629Z,16.26
2022-09-28T09:45:01.615Z,16.40
2022-09-28T09:46:01.622Z,16.83
2022-09-28T09:47:01.564Z,17.69
2022-09-28T09:48:01.578Z,18.55
2022-09-28T09:49:01.548Z,19.19
2022-09-28T09:50:05.322Z,18.53
2022-09-28T09:51:02.600Z,17.90
2022-09-28T09:52:01.545Z,17.39
2022-09-28T09:53:01.516Z,17.04
2022-09-28T09:54:01.501Z,16.79
2022-09-28T09:55:01.497Z,16.55
2022-09-28T09:56:01.557Z,16.47
2022-09-28T09:57:01.469Z,16.34
2022-09-28T09:58:01.463Z,16.37
2022-09-28T09:59:01.458Z,16.83
2022-09-28T10:00:01.460Z,17.44
2022-09-28T10:01:01.487Z,17.46
2022-09-28T10:02:01.454Z,17.42
2022-09-28T10:03:01.457Z,17.17
2022-09-28T10:04:01.416Z,16.99
2022-09-28T10:05:01.387Z,16.94
2022-09-28T10:06:01.397Z,16.92
2022-09-28T10:07:01.373Z,16.97
2022-09-28T10:08:01.387Z,16.91
2022-09-28T10:09:01.360Z,16.77
2022-09-28T10:10:01.348Z,16.69
2022-09-28T10:11:01.398Z,16.55
2022-09-28T10:12:01.327Z,16.46
2022-09-28T10:13:01.300Z,16.39
2022-09-28T10:14:01.296Z,16.41
2022-09-28T10:15:01.303Z,16.44
2022-09-28T10:16:01.289Z,16.54
2022-09-28T10:17:01.334Z,16.61
2022-09-28T10:18:01.374Z,16.76
2022-09-28T10:19:01.422Z,16.92
2022-09-28T10:20:01.198Z,17.38
2022-09-28T10:21:01.354Z,17.82
2022-09-28T10:22:01.328Z,18.06
2022-09-28T10:23:01.233Z,18.26
2022-09-28T10:24:01.203Z,18.48
2022-09-28T10:25:01.197Z,18.60
2022-09-28T10:26:01.615Z,18.71
2022-09-28T10:27:01.118Z,18.74
2022-09-28T10:28:01.122Z,18.78
2022-09-28T10:29:01.327Z,18.81
2022-09-28T10:30:01.135Z,18.82
2022-09-28T10:31:01.174Z,18.98
2022-09-28T10:32:01.052Z,19.16
2022-09-28T10:33:01.064Z,19.12
2022-09-28T10:34:01.110Z,18.98
2022-09-28T10:35:01.041Z,18.86
2022-09-28T10:36:01.037Z,18.81
2022-09-28T10:37:01.026Z,18.73
2022-09-28T10:38:01.029Z,18.67
2022-09-28T10:39:01.036Z,18.64
2022-09-28T10:40:01.034Z,18.70
2022-09-28T10:41:01.127Z,18.86
2022-09-28T10:42:00.976Z,19.09
2022-09-28T10:43:00.971Z,19.07
2022-09-28T10:44:00.958Z,18.91
2022-09-28T10:45:00.942Z,18.88
2022-09-28T10:46:00.981Z,18.82
2022-09-28T10:47:00.942Z,18.98
2022-09-28T10:48:00.951Z,19.11
2022-09-28T10:49:00.899Z,19.23
2022-09-28T10:50:00.968Z,19.71
2022-09-28T10:51:00.879Z,19.84
2022-09-28T10:52:00.879Z,19.67
2022-09-28T10:53:00.886Z,19.35
2022-09-28T10:54:00.850Z,19.01
2022-09-28T10:55:00.882Z,18.78
2022-09-28T10:56:00.818Z,18.61
2022-09-28T10:57:00.822Z,18.42
2022-09-28T10:58:00.789Z,18.36
2022-09-28T10:59:00.781Z,18.34
2022-09-28T11:00:00.770Z,18.64
2022-09-28T11:01:00.778Z,19.01
2022-09-28T11:02:00.802Z,19.57
2022-09-28T11:03:00.836Z,20.12
2022-09-28T11:04:00.720Z,20.63
2022-09-28T11:05:00.739Z,21.15
2022-09-28T11:06:00.714Z,21.56
2022-09-28T11:08:00.679Z,22.16
2022-09-28T11:09:00.704Z,22.62
2022-09-28T11:10:00.769Z,22.47
2022-09-28T11:11:00.690Z,22.12
2022-09-28T11:12:00.692Z,21.89
2022-09-28T11:13:00.661Z,21.69
2022-09-28T11:14:00.651Z,21.59
2022-09-28T11:15:00.702Z,21.28
2022-09-28T11:16:00.643Z,20.80
2022-09-28T11:17:00.680Z,20.34
2022-09-28T11:18:00.582Z,19.97
2022-09-28T11:19:00.638Z,19.64
2022-09-28T11:20:00.600Z,19.45
2022-09-28T11:21:00.519Z,19.30
2022-09-28T11:22:00.531Z,19.23
2022-09-28T11:23:00.587Z,19.19
2022-09-28T11:24:00.523Z,19.24
2022-09-28T11:25:00.480Z,19.79
2022-09-28T11:26:00.513Z,21.01
2022-09-28T11:27:00.525Z,20.95
2022-09-28T11:28:00.461Z,21.83
2022-09-28T11:29:00.476Z,22.30
2022-09-28T11:30:00.474Z,23.18
2022-09-28T11:31:00.540Z,23.73
2022-09-28T11:32:00.457Z,23.79
2022-09-28T11:33:00.449Z,23.62
2022-09-28T11:34:00.440Z,23.23
2022-09-28T11:35:00.690Z,22.51
2022-09-28T11:36:00.420Z,22.03
2022-09-28T11:37:02.116Z,21.78
2022-09-28T11:38:00.377Z,22.36
2022-09-28T11:39:00.354Z,23.13
2022-09-28T11:40:00.381Z,23.28
2022-09-28T11:41:01.615Z,22.81
2022-09-28T11:42:00.633Z,22.44
2022-09-28T11:43:00.617Z,22.12
2022-09-28T11:44:00.312Z,21.68
2022-09-28T11:45:00.324Z,21.32
2022-09-28T11:46:00.411Z,21.08
2022-09-28T11:47:00.329Z,20.88
2022-09-28T11:48:00.282Z,20.85
2022-09-28T11:49:00.322Z,20.82
2022-09-28T11:50:00.449Z,20.66
2022-09-28T11:51:00.492Z,20.49
2022-09-28T11:52:00.310Z,20.32
2022-09-28T11:53:00.302Z,20.18
2022-09-28T11:54:00.212Z,20.03
2022-09-28T11:55:00.239Z,19.82
2022-09-28T11:56:00.311Z,19.66
2022-09-28T11:57:00.294Z,19.44
2022-09-28T11:58:00.180Z,19.29
2022-09-28T11:59:00.154Z,19.19
2022-09-28T12:00:00.261Z,19.04
2022-09-28T12:01:00.151Z,18.96
2022-09-28T12:02:00.226Z,18.94
2022-09-28T12:03:00.222Z,19.05
2022-09-28T12:04:00.308Z,19.15
2022-09-28T12:05:00.116Z,19.05
2022-09-28T12:06:00.118Z,19.00
2022-09-28T12:07:00.088Z,19.01
2022-09-28T12:08:00.689Z,18.96
2022-09-28T12:09:00.020Z,18.85
2022-09-28T12:10:00.022Z,18.73
2022-09-28T12:11:00.033Z,18.68
2022-09-28T12:12:00.015Z,18.70
2022-09-28T12:13:00.023Z,18.61
2022-09-28T12:13:59.956Z,18.46
2022-09-28T12:14:59.985Z,18.36
2022-09-28T12:16:23.494Z,18.28
2022-09-28T12:17:06.681Z,18.09
2022-09-28T12:18:01.072Z,18.11
2022-09-28T12:19:59.967Z,18.52
2022-09-28T12:21:04.449Z,18.96
2022-09-28T12:22:00.876Z,18.83
2022-09-28T12:22:59.894Z,18.71
2022-09-28T12:23:59.935Z,18.63
2022-09-28T12:24:59.879Z,18.53
2022-09-28T12:25:59.828Z,18.48
2022-09-28T12:26:59.857Z,18.31
2022-09-28T12:27:59.836Z,18.26
2022-09-28T12:28:59.836Z,18.21
2022-09-28T12:29:59.843Z,18.15
2022-09-28T12:30:59.865Z,18.08
2022-09-28T12:31:59.807Z,18.05
2022-09-28T12:32:59.773Z,18.06
2022-09-28T12:33:59.746Z,18.03
2022-09-28T12:34:59.776Z,18.05
2022-09-28T12:35:59.766Z,18.05
2022-09-28T12:36:59.769Z,18.09
2022-09-28T12:37:59.770Z,18.13
2022-09-28T12:39:40.632Z,18.19
2022-09-28T12:40:01.026Z,18.28
2022-09-28T12:40:59.759Z,18.45
2022-09-28T12:41:59.699Z,18.60
2022-09-28T12:42:59.638Z,18.70
2022-09-28T12:43:59.618Z,18.79
2022-09-28T12:44:59.858Z,19.09
2022-09-28T12:46:11.661Z,20.60
2022-09-28T12:47:00.706Z,20.53
2022-09-28T12:47:59.670Z,20.26
2022-09-28T12:49:43.661Z,20.15
2022-09-28T12:50:37.720Z,20.11
2022-09-28T12:51:00.826Z,20.15
2022-09-28T12:51:59.579Z,20.12
2022-09-28T12:53:02.901Z,20.12
2022-09-28T12:53:59.575Z,20.14
2022-09-28T12:54:59.607Z,20.08
2022-09-28T12:55:59.501Z,19.97
2022-09-28T12:56:59.531Z,19.94
2022-09-28T12:57:59.512Z,19.96
2022-09-28T12:58:59.559Z,20.02
2022-09-28T12:59:59.489Z,20.07
2022-09-28T13:00:59.487Z,20.04
2022-09-28T13:01:59.524Z,20.11
2022-09-28T13:02:59.489Z,20.12
2022-09-28T13:03:59.432Z,20.29
2022-09-28T13:04:59.436Z,20.26
2022-09-28T13:05:59.450Z,20.18
2022-09-28T13:06:59.440Z,20.08
2022-09-28T13:07:59.419Z,20.04
2022-09-28T13:08:59.401Z,19.82
2022-09-28T13:09:59.371Z,19.62
2022-09-28T13:11:00.660Z,19.44
2022-09-28T13:11:59.392Z,19.32
2022-09-28T13:12:59.358Z,19.41
2022-09-28T13:13:59.330Z,19.37
2022-09-28T13:14:59.320Z,19.52
2022-09-28T13:15:59.362Z,19.44
2022-09-28T13:17:00.730Z,19.37
2022-09-28T13:17:59.275Z,19.29
2022-09-28T13:18:59.421Z,19.26
2022-09-28T13:19:59.290Z,19.22
2022-09-28T13:20:59.250Z,19.08
2022-09-28T13:21:59.250Z,19.00
2022-09-28T13:22:59.226Z,18.96
2022-09-28T13:24:14.411Z,18.97
2022-09-28T13:25:00.239Z,18.92
2022-09-28T13:25:59.220Z,19.09
2022-09-28T13:26:59.545Z,19.05
2022-09-28T13:27:59.142Z,18.97
2022-09-28T13:28:59.183Z,18.91
2022-09-28T13:30:00.818Z,18.85
2022-09-28T13:31:59.129Z,18.73
2022-09-28T13:32:59.102Z,18.64
2022-09-28T13:33:59.103Z,18.60
2022-09-28T13:34:59.115Z,18.53
2022-09-28T13:35:59.084Z,18.49
2022-09-28T13:36:59.103Z,18.48
2022-09-28T13:37:59.094Z,18.48
2022-09-28T13:38:59.076Z,18.45
2022-09-28T13:39:59.197Z,18.37
2022-09-28T13:40:59.068Z,18.34
2022-09-28T13:41:59.081Z,18.36
2022-09-28T13:42:59.025Z,18.30
2022-09-28T13:43:59.013Z,18.13
2022-09-28T13:45:00.465Z,17.98
2022-09-28T13:45:59.060Z,17.91
2022-09-28T13:46:58.972Z,17.90
2022-09-28T13:47:58.945Z,17.87
2022-09-28T13:48:58.973Z,17.86
2022-09-28T13:49:59.067Z,17.80
2022-09-28T13:50:58.933Z,17.75
2022-09-28T13:51:58.924Z,17.80
2022-09-28T13:52:58.963Z,17.86
2022-09-28T13:53:58.890Z,17.82
2022-09-28T13:54:58.904Z,17.79
2022-09-28T13:55:58.893Z,17.72
2022-09-28T13:56:59.307Z,17.69
2022-09-28T13:57:58.831Z,17.69
2022-09-28T13:58:58.831Z,17.65
2022-09-28T13:59:58.885Z,17.60
2022-09-28T14:00:58.803Z,17.54
2022-09-28T14:02:02.881Z,17.57
2022-09-28T14:02:59.793Z,17.60
2022-09-28T14:03:58.753Z,17.65
2022-09-28T14:04:58.746Z,17.68
2022-09-28T14:05:58.729Z,17.75
2022-09-28T14:06:58.721Z,17.79
2022-09-28T14:07:58.710Z,17.82
2022-09-28T14:08:58.711Z,17.88
2022-09-28T14:09:58.772Z,17.94
2022-09-28T14:10:58.685Z,17.95
2022-09-28T14:11:58.691Z,17.95
2022-09-28T14:12:58.685Z,17.98
2022-09-28T14:13:58.654Z,17.94
2022-09-28T14:14:58.663Z,17.86
2022-09-28T14:15:58.669Z,17.72
2022-09-28T14:16:58.665Z,17.60
2022-09-28T14:17:58.664Z,17.54
2022-09-28T14:18:58.644Z,17.42
2022-09-28T14:19:58.644Z,17.32
2022-09-28T14:20:58.613Z,17.24
2022-09-28T14:21:58.617Z,17.20
2022-09-28T14:22:58.596Z,17.09
2022-09-28T14:23:59.821Z,16.98
2022-09-28T14:24:58.585Z,16.84
2022-09-28T14:25:58.554Z,16.76
2022-09-28T14:26:58.575Z,16.72
2022-09-28T14:27:58.526Z,16.84
2022-09-28T14:28:58.482Z,16.97
2022-09-28T14:29:58.523Z,17.04
2022-09-28T14:30:58.519Z,17.07
2022-09-28T14:31:58.468Z,17.10
2022-09-28T14:32:58.465Z,17.07
2022-09-28T14:33:58.463Z,16.97
2022-09-28T14:34:58.457Z,16.91
2022-09-28T14:35:58.444Z,16.92
2022-09-28T14:36:58.434Z,16.92
2022-09-28T14:37:58.484Z,17.01
2022-09-28T14:38:58.407Z,16.86
2022-09-28T14:39:58.535Z,16.73
2022-09-28T14:40:58.451Z,16.68
2022-09-28T14:41:58.415Z,16.76
2022-09-28T14:42:58.447Z,16.74
2022-09-28T14:43:58.328Z,16.73
2022-09-28T14:45:01.780Z,16.76
2022-09-28T14:45:59.335Z,16.95
2022-09-28T14:46:58.323Z,17.10
2022-09-28T14:47:58.374Z,17.19
2022-09-28T14:48:58.316Z,17.20
2022-09-28T14:49:58.334Z,17.30
2022-09-28T14:50:58.298Z,17.35
2022-09-28T14:51:58.254Z,17.47
2022-09-28T14:52:58.275Z,17.52
2022-09-28T14:53:58.258Z,17.47
2022-09-28T14:54:58.248Z,17.31
2022-09-28T14:55:58.225Z,17.39
2022-09-28T14:56:58.283Z,17.34
2022-09-28T14:57:58.269Z,17.19
2022-09-28T14:58:58.257Z,17.13
2022-09-28T14:59:58.231Z,17.07
2022-09-28T15:00:58.224Z,17.01
2022-09-28T15:01:58.165Z,16.98
2022-09-28T15:02:58.172Z,16.94
2022-09-28T15:03:58.266Z,16.94
2022-09-28T15:04:58.360Z,16.92
2022-09-28T15:05:58.085Z,16.92
2022-09-28T15:06:58.094Z,16.98
2022-09-28T15:07:58.096Z,17.23
2022-09-28T15:08:58.065Z,17.37
2022-09-28T15:09:58.070Z,17.46
2022-09-28T15:10:58.078Z,17.53
2022-09-28T15:11:58.024Z,17.54
2022-09-28T15:12:58.415Z,17.53
2022-09-28T15:13:57.985Z,17.50
2022-09-28T15:14:57.978Z,17.39
2022-09-28T15:15:58.044Z,17.30
2022-09-28T15:16:57.976Z,17.14
2022-09-28T15:17:57.965Z,17.01
2022-09-28T15:18:57.936Z,16.91
2022-09-28T15:19:57.959Z,16.83
2022-09-28T15:20:57.945Z,16.76
2022-09-28T15:21:57.949Z,16.69
2022-09-28T15:22:57.952Z,16.62
2022-09-28T15:23:58.495Z,16.57
2022-09-28T15:25:02.240Z,16.50
2022-09-28T15:25:58.907Z,16.41
2022-09-28T15:26:57.898Z,16.36
2022-09-28T15:27:57.854Z,16.29
2022-09-28T15:28:57.825Z,16.25
2022-09-28T15:29:57.816Z,16.21
2022-09-28T15:30:57.822Z,16.13
2022-09-28T15:31:57.804Z,16.10
2022-09-28T15:32:57.794Z,16.05
2022-09-28T15:33:57.776Z,16.02
2022-09-28T15:34:57.769Z,15.96
2022-09-28T15:35:57.756Z,15.91
2022-09-28T15:36:57.745Z,15.85
2022-09-28T15:37:57.745Z,15.83
2022-09-28T15:38:57.737Z,15.76
2022-09-28T15:39:57.847Z,15.75
2022-09-28T15:40:57.790Z,15.73
2022-09-28T15:41:57.734Z,15.72
2022-09-28T15:42:59.441Z,15.65
2022-09-28T15:43:57.685Z,15.62
2022-09-28T15:44:57.680Z,15.54
2022-09-28T15:45:57.778Z,15.50
2022-09-28T15:46:57.649Z,15.47
2022-09-28T15:47:57.680Z,15.41
2022-09-28T15:48:57.635Z,15.33
2022-09-28T15:49:57.675Z,15.30
2022-09-28T15:50:57.597Z,15.22
2022-09-28T15:51:57.606Z,15.15
2022-09-28T15:52:57.594Z,15.11
2022-09-28T15:53:57.577Z,15.10
2022-09-28T15:54:57.595Z,15.04
2022-09-28T15:55:57.739Z,14.97
2022-09-28T15:56:57.563Z,14.92
2022-09-28T15:57:57.585Z,14.87
2022-09-28T15:58:57.599Z,14.82
2022-09-28T15:59:57.538Z,14.77
2022-09-28T16:00:57.540Z,14.71
2022-09-28T16:01:57.526Z,14.70
2022-09-28T16:02:57.645Z,14.67
2022-09-28T16:03:57.547Z,14.63
2022-09-28T16:04:57.455Z,14.61
2022-09-28T16:05:57.446Z,14.58
2022-09-28T16:06:57.416Z,14.55
2022-09-28T16:07:57.427Z,14.53
2022-09-28T16:08:57.426Z,14.49
2022-09-28T16:09:57.406Z,14.44
2022-09-28T16:10:57.396Z,14.43
2022-09-28T16:11:57.415Z,14.40
2022-09-28T16:12:57.396Z,14.37
2022-09-28T16:13:57.386Z,14.34
2022-09-28T16:14:57.372Z,14.33
2022-09-28T16:15:57.461Z,14.30
2022-09-28T16:16:57.433Z,14.25
2022-09-28T16:17:57.315Z,14.25
2022-09-28T16:18:57.295Z,14.20
2022-09-28T16:19:57.284Z,14.19
2022-09-28T16:20:57.272Z,14.16
2022-09-28T16:21:57.254Z,14.15
2022-09-28T16:22:57.289Z,14.13
2022-09-28T16:23:57.255Z,14.11
2022-09-28T16:24:57.266Z,14.07
2022-09-28T16:25:57.283Z,14.08
2022-09-28T16:26:57.217Z,14.04
2022-09-28T16:27:57.224Z,14.04
2022-09-28T16:28:57.213Z,14.00
2022-09-28T16:29:57.176Z,14.00
2022-09-28T16:30:57.192Z,13.97
2022-09-28T16:31:57.153Z,13.94
2022-09-28T16:32:57.165Z,13.91
2022-09-28T16:33:57.142Z,13.91
2022-09-28T16:34:57.157Z,13.87
2022-09-28T16:35:57.125Z,13.87
2022-09-28T16:36:57.105Z,13.83
2022-09-28T16:37:57.094Z,13.82
2022-09-28T16:38:57.113Z,13.80
2022-09-28T16:39:57.103Z,13.78
2022-09-28T16:40:57.146Z,13.75
2022-09-28T16:41:57.113Z,13.73
2022-09-28T16:42:57.092Z,13.67
2022-09-28T16:43:57.053Z,13.64
2022-09-28T16:44:57.018Z,13.61
2022-09-28T16:45:57.060Z,13.60
2022-09-28T16:46:57.031Z,13.58
2022-09-28T16:47:56.973Z,13.54
2022-09-28T16:48:56.957Z,13.50
2022-09-28T16:49:56.944Z,13.49
2022-09-28T16:50:56.934Z,13.46
2022-09-28T16:51:56.948Z,13.45
2022-09-28T16:53:00.106Z,13.40
2022-09-28T16:53:56.916Z,13.40
2022-09-28T16:54:56.897Z,13.37
2022-09-28T16:55:56.885Z,13.36
2022-09-28T16:56:56.883Z,13.28
2022-09-28T16:57:56.871Z,13.23
2022-09-28T16:58:56.844Z,13.23
2022-09-28T16:59:56.845Z,13.20
2022-09-28T17:00:56.859Z,13.17
2022-09-28T17:01:56.868Z,13.16
2022-09-28T17:02:56.846Z,13.12
2022-09-28T17:03:56.795Z,13.11
2022-09-28T17:04:56.794Z,13.08
2022-09-28T17:05:56.771Z,13.06
2022-09-28T17:06:56.763Z,13.06
2022-09-28T17:07:56.751Z,13.05
2022-09-28T17:08:56.806Z,13.02
2022-09-28T17:09:56.743Z,13.02
2022-09-28T17:11:57.713Z,12.99
2022-09-28T17:12:56.703Z,12.95
2022-09-28T17:13:56.831Z,12.94
2022-09-28T17:14:56.744Z,12.93
2022-09-28T17:15:56.784Z,12.93
2022-09-28T17:17:08.190Z,12.90
2022-09-28T17:17:57.683Z,12.91
2022-09-28T17:18:56.674Z,12.90
2022-09-28T17:19:56.634Z,12.88
2022-09-28T17:20:56.615Z,12.88
2022-09-28T17:21:56.605Z,12.88
2022-09-28T17:22:56.584Z,12.88
2022-09-28T17:23:56.593Z,12.87
2022-09-28T17:24:56.573Z,12.87
2022-09-28T17:25:56.563Z,12.86
2022-09-28T17:26:56.562Z,12.87
2022-09-28T17:27:56.574Z,12.87
2022-09-28T17:28:56.555Z,12.88
2022-09-28T17:29:56.574Z,12.87
2022-09-28T17:30:56.566Z,12.87
2022-09-28T17:31:56.525Z,12.88
2022-09-28T17:32:56.534Z,12.87
2022-09-28T17:33:56.557Z,12.86
2022-09-28T17:35:19.993Z,12.84
2022-09-28T17:35:57.530Z,12.81
2022-09-28T17:36:56.452Z,12.81
2022-09-28T17:37:56.431Z,12.83
2022-09-28T17:38:56.421Z,12.81
2022-09-28T17:39:56.432Z,12.83
2022-09-28T17:40:56.471Z,12.81
2022-09-28T17:41:56.422Z,12.81
2022-09-28T17:42:56.402Z,12.81
2022-09-28T17:43:56.433Z,12.81
2022-09-28T17:44:56.372Z,12.80
2022-09-28T17:45:56.393Z,12.80
2022-09-28T17:46:56.360Z,12.81
2022-09-28T17:47:56.643Z,12.81
2022-09-28T17:48:56.309Z,12.78
2022-09-28T17:49:56.312Z,12.78
2022-09-28T17:50:56.312Z,12.76
2022-09-28T17:51:56.274Z,12.76
2022-09-28T17:52:56.264Z,12.75
2022-09-28T17:53:56.259Z,12.75
2022-09-28T17:54:56.333Z,12.76
2022-09-28T17:55:56.274Z,12.75
2022-09-28T17:56:56.262Z,12.75
2022-09-28T17:57:56.337Z,12.75
2022-09-28T17:58:56.246Z,12.73
2022-09-28T17:59:56.224Z,12.73
2022-09-28T18:00:56.201Z,12.73
2022-09-28T18:01:59.354Z,12.72
2022-09-28T18:02:57.243Z,12.70
2022-09-28T18:03:56.188Z,12.69
2022-09-28T18:04:56.406Z,12.69
2022-09-28T18:05:56.131Z,12.68
2022-09-28T18:06:56.132Z,12.68
2022-09-28T18:07:56.131Z,12.69
2022-09-28T18:08:56.138Z,12.66
2022-09-28T18:09:56.102Z,12.66
2022-09-28T18:10:56.104Z,12.65
2022-09-28T18:11:56.081Z,12.66
2022-09-28T18:12:56.070Z,12.66
2022-09-28T18:13:56.111Z,12.65
2022-09-28T18:14:56.041Z,12.66
2022-09-28T18:15:56.101Z,12.63
2022-09-28T18:16:56.022Z,12.62
2022-09-28T18:17:56.002Z,12.62
2022-09-28T18:18:55.983Z,12.62
2022-09-28T18:19:55.961Z,12.62
2022-09-28T18:20:56.468Z,12.61
2022-09-28T18:21:55.941Z,12.58
2022-09-28T18:22:55.931Z,12.61
2022-09-28T18:23:55.951Z,12.57
2022-09-28T18:24:55.930Z,12.55
2022-09-28T18:25:55.894Z,12.57
2022-09-28T18:26:55.889Z,12.57
2022-09-28T18:27:55.872Z,12.55
2022-09-28T18:28:55.895Z,12.54
2022-09-28T18:29:55.862Z,12.54
2022-09-28T18:30:55.892Z,12.54
2022-09-28T18:31:55.849Z,12.50
2022-09-28T18:32:55.854Z,12.50
2022-09-28T18:33:55.888Z,12.50
2022-09-28T18:34:55.821Z,12.50
2022-09-28T18:35:55.809Z,12.50
2022-09-28T18:36:56.178Z,12.47
2022-09-28T18:37:55.790Z,12.47
2022-09-28T18:38:55.794Z,12.47
2022-09-28T18:39:55.765Z,12.45
2022-09-28T18:40:55.915Z,12.44
2022-09-28T18:41:55.722Z,12.45
2022-09-28T18:42:55.712Z,12.44
2022-09-28T18:43:55.730Z,12.45
2022-09-28T18:44:55.710Z,12.43
2022-09-28T18:45:55.730Z,12.44
2022-09-28T18:46:55.701Z,12.43
2022-09-28T18:47:55.693Z,12.40
2022-09-28T18:48:55.672Z,12.39
2022-09-28T18:49:55.670Z,12.40
2022-09-28T18:50:55.660Z,12.37
2022-09-28T18:51:55.671Z,12.39
2022-09-28T18:52:55.612Z,12.36
2022-09-28T18:53:55.639Z,12.37
2022-09-28T18:54:56.847Z,12.36
2022-09-28T18:55:55.617Z,12.36
2022-09-28T18:56:55.561Z,12.35
2022-09-28T18:57:55.540Z,12.33
2022-09-28T18:58:55.558Z,12.32
2022-09-28T18:59:55.578Z,12.32
2022-09-28T19:01:13.493Z,12.30
2022-09-28T19:01:56.627Z,12.29
2022-09-28T19:02:55.665Z,12.29
2022-09-28T19:03:55.549Z,12.28
2022-09-28T19:04:55.510Z,12.25
2022-09-28T19:05:55.582Z,12.25
2022-09-28T19:06:55.594Z,12.23
2022-09-28T19:07:55.442Z,12.20
2022-09-28T19:08:55.448Z,12.21
2022-09-28T19:09:55.500Z,12.20
2022-09-28T19:10:55.439Z,12.18
2022-09-28T19:11:55.466Z,12.17
2022-09-28T19:12:55.463Z,12.15
2022-09-28T19:13:55.425Z,12.12
2022-09-28T19:14:55.399Z,12.12
2022-09-28T19:15:55.413Z,12.11
2022-09-28T19:16:55.373Z,12.10
2022-09-28T19:17:55.379Z,12.08
2022-09-28T19:18:55.338Z,12.07
2022-09-28T19:19:55.348Z,12.08
2022-09-28T19:20:55.320Z,12.05
2022-09-28T19:21:55.589Z,12.02
2022-09-28T19:22:55.308Z,12.02
2022-09-28T19:23:55.356Z,12.03
2022-09-28T19:24:55.320Z,11.99
2022-09-28T19:25:55.362Z,12.00
2022-09-28T19:26:55.256Z,11.97
2022-09-28T19:27:55.258Z,11.96
2022-09-28T19:28:55.298Z,11.95
2022-09-28T19:29:55.218Z,11.96
2022-09-28T19:30:55.318Z,11.95
2022-09-28T19:31:55.230Z,11.95
2022-09-28T19:32:55.217Z,11.93
2022-09-28T19:33:55.226Z,11.91
2022-09-28T19:34:55.188Z,11.91
2022-09-28T19:35:55.174Z,11.91
2022-09-28T19:36:55.355Z,11.91
2022-09-28T19:37:55.227Z,11.89
2022-09-28T19:38:55.186Z,11.88
2022-09-28T19:39:55.129Z,11.86
2022-09-28T19:40:55.197Z,11.85
2022-09-28T19:41:55.126Z,11.88
2022-09-28T19:42:55.128Z,11.86
2022-09-28T19:43:55.123Z,11.81
2022-09-28T19:44:55.068Z,11.81
2022-09-28T19:45:55.084Z,11.81
2022-09-28T19:46:55.056Z,11.80
2022-09-28T19:47:59.254Z,11.80
2022-09-28T19:48:55.060Z,11.80
2022-09-28T19:49:55.007Z,11.77
2022-09-28T19:50:55.008Z,11.73
2022-09-28T19:52:12.728Z,11.73
2022-09-28T19:52:55.969Z,11.70
2022-09-28T19:53:54.968Z,11.68
2022-09-28T19:54:54.958Z,11.62
2022-09-28T19:55:54.927Z,11.60
2022-09-28T19:56:54.909Z,11.59
2022-09-28T19:57:54.918Z,11.58
2022-09-28T19:58:54.914Z,11.53
2022-09-28T19:59:59.248Z,11.55
2022-09-28T20:00:55.878Z,11.52
2022-09-28T20:01:54.913Z,11.49
2022-09-28T20:02:54.956Z,11.49
2022-09-28T20:03:54.816Z,11.48
2022-09-28T20:04:54.845Z,11.41
2022-09-28T20:05:54.814Z,11.43
2022-09-28T20:06:54.796Z,11.40
2022-09-28T20:07:54.800Z,11.38
2022-09-28T20:08:54.776Z,11.34
2022-09-28T20:09:54.767Z,11.33
2022-09-28T20:10:54.804Z,11.31
2022-09-28T20:11:54.780Z,11.27
2022-09-28T20:12:54.785Z,11.25
2022-09-28T20:13:54.726Z,11.20
2022-09-28T20:14:54.797Z,11.19
2022-09-28T20:15:54.777Z,11.18
2022-09-28T20:16:54.725Z,11.16
2022-09-28T20:17:54.737Z,11.15
2022-09-28T20:18:54.706Z,11.10
2022-09-28T20:19:54.696Z,11.08
2022-09-28T20:20:54.703Z,11.04
2022-09-28T20:21:55.875Z,11.04
2022-09-28T20:22:54.696Z,11.01
2022-09-28T20:23:54.657Z,11.00
2022-09-28T20:24:54.662Z,10.97
2022-09-28T20:25:54.645Z,10.95
2022-09-28T20:26:54.722Z,10.92
2022-09-28T20:27:54.643Z,10.89
2022-09-28T20:28:54.605Z,10.87
2022-09-28T20:29:54.615Z,10.86
2022-09-28T20:30:54.611Z,10.84
2022-09-28T20:31:54.603Z,10.83
2022-09-28T20:32:54.574Z,10.80
2022-09-28T20:33:54.966Z,10.80
2022-09-28T20:34:54.534Z,10.79
2022-09-28T20:35:54.506Z,10.79
2022-09-28T20:36:54.527Z,10.75
2022-09-28T20:37:54.554Z,10.76
2022-09-28T20:38:54.486Z,10.75
2022-09-28T20:39:54.475Z,10.72
2022-09-28T20:40:54.504Z,10.71
2022-09-28T20:41:54.444Z,10.71
2022-09-28T20:42:54.422Z,10.68
2022-09-28T20:43:54.407Z,10.68
2022-09-28T20:44:54.428Z,10.65
2022-09-28T20:45:54.424Z,10.64